createdAt,value
2018-07-11T00:22:46.000Z,41.983
2018-07-11T00:32:46.000Z,42.036
2018-07-11T00:42:46.000Z,42.024
2018-07-11T00:52:46.000Z,42.11
2018-07-11T01:02:46.000Z,42.13
2018-07-11T01:12:46.000Z,42.238
2018-07-11T01:32:46.000Z,42.323
2018-07-11T01:42:46.000Z,42.332
2018-07-11T01:52:46.000Z,42.408
2018-07-11T02:02:46.000Z,42.429
2018-07-11T02:12:46.000Z,42.46
2018-07-11T02:22:46.000Z,42.556
2018-07-11T02:32:46.000Z,42.555
2018-07-11T02:42:46.000Z,42.608
2018-07-11T02:52:46.000Z,42.66
2018-07-11T03:02:46.000Z,42.702
2018-07-11T03:12:46.000Z,42.722
2018-07-11T03:22:47.000Z,42.73
2018-07-11T03:32:47.000Z,42.697
2018-07-11T03:42:47.000Z,42.696
2018-07-11T03:52:47.000Z,42.726
2018-07-11T04:02:47.000Z,42.746
2018-07-11T04:12:47.000Z,42.799
2018-07-11T04:22:47.000Z,42.744
2018-07-11T04:32:47.000Z,42.731
2018-07-11T04:42:47.000Z,42.762
2018-07-11T04:52:47.000Z,42.792
2018-07-11T05:02:47.000Z,42.749
2018-07-11T05:12:47.000Z,42.62
2018-07-11T05:22:47.000Z,42.215
2018-07-11T05:32:47.000Z,42.397
2018-07-11T05:42:47.000Z,42.366
2018-07-11T05:52:47.000Z,42.466
2018-07-11T06:02:47.000Z,42.64
2018-07-11T06:12:47.000Z,42.584
2018-07-11T06:22:47.000Z,42.445
2018-07-11T06:32:51.000Z,42.466
2018-07-11T06:42:47.000Z,42.275
2018-07-11T06:52:47.000Z,42.063
2018-07-11T07:02:49.000Z,41.927
2018-07-11T07:12:47.000Z,41.812
2018-07-11T07:22:47.000Z,41.568
2018-07-11T07:32:47.000Z,41.666
2018-07-11T07:42:47.000Z,41.786
2018-07-11T07:52:47.000Z,41.821
2018-07-11T08:12:47.000Z,41.771
2018-07-11T08:22:47.000Z,41.666
2018-07-11T08:32:47.000Z,41.54
2018-07-11T08:42:47.000Z,41.649
2018-07-11T09:02:47.000Z,41.877
2018-07-11T09:12:47.000Z,42.03
2018-07-11T09:22:47.000Z,42.148
2018-07-11T09:52:47.000Z,41.618
2018-07-11T10:02:47.000Z,41.662
2018-07-11T10:12:47.000Z,41.75
2018-07-11T10:22:47.000Z,41.901
2018-07-11T10:32:47.000Z,41.816
2018-07-11T10:42:47.000Z,41.937
2018-07-11T10:52:47.000Z,41.679
2018-07-11T11:02:47.000Z,41.746
2018-07-11T11:12:47.000Z,41.994
2018-07-11T11:22:47.000Z,42.146
2018-07-11T11:32:47.000Z,42.363
2018-07-11T11:42:47.000Z,42.507
2018-07-11T11:52:48.000Z,42.724
2018-07-11T12:02:48.000Z,42.803
2018-07-11T12:12:48.000Z,43.022
2018-07-11T12:22:48.000Z,43.123
2018-07-11T12:32:52.000Z,43.231
2018-07-11T12:42:50.000Z,43.333
2018-07-11T12:52:48.000Z,43.463
2018-07-11T13:02:48.000Z,43.572
2018-07-11T13:12:48.000Z,43.734
2018-07-11T13:22:48.000Z,43.808
2018-07-11T13:32:48.000Z,43.985
2018-07-11T13:42:48.000Z,43.912
2018-07-11T13:52:48.000Z,43.833
2018-07-11T14:02:48.000Z,43.624
2018-07-11T14:12:48.000Z,43.777
2018-07-11T14:22:48.000Z,43.501
2018-07-11T14:32:48.000Z,43.46
2018-07-11T14:42:48.000Z,43.561
2018-07-11T15:02:48.000Z,43.716
2018-07-11T15:12:48.000Z,43.676
2018-07-11T15:22:48.000Z,43.851
2018-07-11T15:32:48.000Z,44.1
2018-07-11T15:42:48.000Z,44.314
2018-07-11T15:52:48.000Z,44.678
2018-07-11T16:02:48.000Z,44.568
2018-07-11T16:12:48.000Z,44.61
2018-07-11T16:22:50.000Z,44.92
2018-07-11T16:32:48.000Z,45.119
2018-07-11T16:42:48.000Z,45.555
2018-07-11T16:52:48.000Z,45.316
2018-07-11T17:02:48.000Z,45.491
2018-07-11T17:12:48.000Z,45.784
2018-07-11T17:22:48.000Z,45.923
2018-07-11T17:32:48.000Z,45.869
2018-07-11T17:42:48.000Z,45.991
2018-07-11T17:52:48.000Z,46.022
2018-07-11T18:02:48.000Z,46.11
2018-07-11T18:12:48.000Z,46.453
2018-07-11T18:22:48.000Z,46.684
2018-07-11T18:32:48.000Z,46.641
2018-07-11T18:42:48.000Z,46.619
2018-07-11T18:52:48.000Z,46.696
2018-07-11T19:02:48.000Z,46.846
2018-07-11T19:12:48.000Z,46.965
2018-07-11T19:22:48.000Z,46.974
2018-07-11T19:32:49.000Z,47.037
2018-07-11T19:42:48.000Z,47.102
2018-07-11T19:52:48.000Z,47.144
2018-07-11T20:02:49.000Z,47.356
2018-07-11T20:12:49.000Z,47.291
2018-07-11T20:22:49.000Z,47.346
2018-07-11T20:32:49.000Z,47.434
2018-07-11T20:42:49.000Z,47.442
2018-07-11T20:52:49.000Z,47.397
2018-07-11T21:02:49.000Z,47.295
2018-07-11T21:12:49.000Z,47.316
2018-07-11T21:22:49.000Z,47.291
2018-07-11T21:32:53.000Z,47.311
2018-07-11T21:42:49.000Z,47.254
2018-07-11T21:52:50.000Z,47.452
2018-07-11T22:02:49.000Z,47.154
2018-07-11T22:12:49.000Z,47.746
2018-07-11T22:22:49.000Z,47.71
2018-07-11T22:32:49.000Z,47.588
2018-07-11T22:42:49.000Z,47.641
2018-07-11T22:52:49.000Z,47.708
2018-07-11T23:02:49.000Z,47.694
2018-07-11T23:12:49.000Z,47.725
2018-07-11T23:22:49.000Z,47.768
2018-07-11T23:32:49.000Z,47.843
2018-07-11T23:42:49.000Z,47.984
2018-07-11T23:52:49.000Z,48.135
